createdAt,value
2018-11-06T00:04:01.317Z,92.10
2018-11-06T00:09:04.162Z,92.21
2018-11-06T00:14:06.316Z,92.02
2018-11-06T00:19:08.416Z,92.42
2018-11-06T00:24:10.556Z,92.68
2018-11-06T00:29:12.722Z,91.50
2018-11-06T00:34:14.920Z,92.33
2018-11-06T00:39:16.943Z,92.42
2018-11-06T00:44:19.071Z,91.47
2018-11-06T00:49:21.195Z,91.42
2018-11-06T00:54:23.319Z,91.83
2018-11-06T00:59:25.426Z,91.59
2018-11-06T01:04:27.514Z,91.50
2018-11-06T01:09:29.629Z,91.30
2018-11-06T01:14:31.772Z,91.12
2018-11-06T01:19:33.922Z,90.98
2018-11-06T01:24:36.017Z,90.43
2018-11-06T01:29:38.120Z,90.73
2018-11-06T01:34:40.263Z,90.98
2018-11-06T01:39:42.366Z,91.35
2018-11-06T01:44:44.493Z,92.15
2018-11-06T01:49:46.623Z,92.07
2018-11-06T01:54:48.754Z,92.16
2018-11-06T01:59:50.873Z,91.87
2018-11-06T02:04:52.995Z,91.56
2018-11-06T02:09:55.086Z,92.32
2018-11-06T02:14:57.206Z,91.92
2018-11-06T02:19:59.526Z,91.66
2018-11-06T02:25:01.671Z,91.38
2018-11-06T02:30:04.723Z,92.14
2018-11-06T02:35:07.135Z,91.58
2018-11-06T02:40:11.006Z,92.28
2018-11-06T02:45:13.547Z,91.46
2018-11-06T02:50:15.679Z,91.51
2018-11-06T02:55:17.802Z,91.40
2018-11-06T03:00:19.929Z,91.59
2018-11-06T03:05:22.014Z,91.25
2018-11-06T03:10:24.195Z,92.31
2018-11-06T03:15:26.285Z,91.66
2018-11-06T03:20:28.426Z,92.14
2018-11-06T03:25:30.555Z,91.92
2018-11-06T03:30:32.697Z,91.80
2018-11-06T03:35:34.779Z,91.26
2018-11-06T03:40:36.894Z,91.82
2018-11-06T03:45:39.021Z,91.60
2018-11-06T03:50:41.139Z,91.71
2018-11-06T03:55:43.231Z,91.37
2018-11-06T04:00:45.353Z,91.57
2018-11-06T04:05:47.455Z,91.62
2018-11-06T04:10:49.547Z,92.42
2018-11-06T04:15:51.666Z,93.26
2018-11-06T04:20:53.778Z,92.83
2018-11-06T04:25:55.886Z,92.03
2018-11-06T04:30:58.090Z,93.24
2018-11-06T04:36:00.191Z,93.13
2018-11-06T04:41:02.318Z,94.59
2018-11-06T04:46:04.746Z,95.48
2018-11-06T04:51:06.868Z,95.68
2018-11-06T04:56:08.984Z,94.50
2018-11-06T05:01:11.116Z,95.05
2018-11-06T05:06:13.690Z,96.65
2018-11-06T05:11:15.810Z,95.03
2018-11-06T05:16:17.976Z,96.08
2018-11-06T05:21:20.076Z,95.92
2018-11-06T05:26:22.236Z,95.69
2018-11-06T05:31:24.354Z,96.10
2018-11-06T05:36:26.494Z,95.52
2018-11-06T05:41:28.640Z,95.83
2018-11-06T05:46:30.763Z,95.15
2018-11-06T05:51:32.865Z,94.74
2018-11-06T05:56:34.994Z,93.25
2018-11-06T06:01:37.105Z,92.73
2018-11-06T06:06:39.214Z,92.99
2018-11-06T06:11:41.360Z,93.51
2018-11-06T06:16:43.505Z,94.63
2018-11-06T06:21:45.698Z,95.02
2018-11-06T06:26:47.841Z,93.65
2018-11-06T06:31:49.942Z,94.85
2018-11-06T06:36:52.058Z,95.16
2018-11-06T06:41:54.204Z,95.85
2018-11-06T06:46:56.311Z,95.49
2018-11-06T06:51:58.418Z,96.09
2018-11-06T06:57:00.506Z,95.69
2018-11-06T07:02:02.630Z,95.92
2018-11-06T07:07:04.951Z,94.94
2018-11-06T07:12:07.070Z,94.20
2018-11-06T07:17:09.429Z,93.44
2018-11-06T07:22:11.545Z,93.04
2018-11-06T07:27:13.796Z,92.67
2018-11-06T07:32:15.885Z,92.12
2018-11-06T07:37:17.990Z,92.47
2018-11-06T07:42:20.101Z,91.83
2018-11-06T07:47:22.249Z,92.49
2018-11-06T07:52:24.418Z,93.74
2018-11-06T07:57:26.541Z,94.40
2018-11-06T08:02:28.690Z,93.28
2018-11-06T08:07:30.784Z,93.40
2018-11-06T08:12:32.917Z,94.14
2018-11-06T08:17:36.179Z,94.50
2018-11-06T08:22:38.772Z,94.65
2018-11-06T08:27:41.810Z,94.39
2018-11-06T08:32:44.271Z,94.26
2018-11-06T08:37:46.105Z,94.03
2018-11-06T08:42:48.255Z,93.71
2018-11-06T08:47:50.362Z,93.35
2018-11-06T08:52:52.479Z,93.76
2018-11-06T08:57:54.618Z,93.52
2018-11-06T09:02:56.766Z,92.82
2018-11-06T09:07:58.887Z,92.55
2018-11-06T09:13:01.019Z,92.74
2018-11-06T09:18:03.167Z,93.26
2018-11-06T09:23:05.292Z,92.32
2018-11-06T09:28:07.375Z,92.43
2018-11-06T09:33:09.477Z,91.45
2018-11-06T09:38:11.604Z,92.24
2018-11-06T09:43:13.753Z,93.90
2018-11-06T09:48:15.859Z,93.52
2018-11-06T09:53:18.044Z,92.07
2018-11-06T09:58:20.184Z,92.53
2018-11-06T10:03:22.278Z,92.25
2018-11-06T10:08:24.559Z,92.74
2018-11-06T10:13:26.709Z,92.41
2018-11-06T10:18:28.870Z,92.76
2018-11-06T10:23:30.984Z,92.79
2018-11-06T10:28:33.154Z,91.76
2018-11-06T10:33:35.293Z,91.83
2018-11-06T10:38:37.428Z,92.10
2018-11-06T10:43:39.595Z,91.55
2018-11-06T10:48:41.695Z,93.28
2018-11-06T10:53:43.813Z,93.73
2018-11-06T10:58:45.933Z,94.17
2018-11-06T11:03:53.783Z,93.83
2018-11-06T11:08:55.907Z,93.48
2018-11-06T11:13:57.994Z,94.29
2018-11-06T11:19:00.278Z,93.38
2018-11-06T11:24:02.444Z,94.06
2018-11-06T11:29:04.739Z,93.14
2018-11-06T11:34:06.906Z,93.16
2018-11-06T11:39:09.345Z,93.89
2018-11-06T11:44:11.495Z,93.55
2018-11-06T11:49:13.610Z,93.78
2018-11-06T11:54:15.713Z,93.05
2018-11-06T11:59:17.890Z,92.69
2018-11-06T12:04:20.010Z,91.87
2018-11-06T12:09:22.128Z,91.14
2018-11-06T12:14:24.263Z,90.51
2018-11-06T12:19:26.463Z,90.94
2018-11-06T12:24:28.684Z,90.27
2018-11-06T12:29:30.761Z,92.52
2018-11-06T12:34:33.092Z,91.86
2018-11-06T12:39:35.215Z,92.07
2018-11-06T12:44:37.356Z,92.08
2018-11-06T12:49:39.478Z,91.42
2018-11-06T12:54:41.622Z,91.99
2018-11-06T12:59:43.927Z,92.81
2018-11-06T13:04:46.080Z,92.41
2018-11-06T13:09:48.233Z,91.09
2018-11-06T13:14:50.343Z,91.58
2018-11-06T13:19:52.508Z,90.65
2018-11-06T13:24:54.623Z,90.91
2018-11-06T13:29:56.770Z,90.54
2018-11-06T13:34:58.932Z,89.96
2018-11-06T13:40:01.030Z,90.64
2018-11-06T13:45:03.714Z,90.57
2018-11-06T13:50:06.210Z,90.70
2018-11-06T13:55:09.591Z,90.59
2018-11-06T14:00:14.242Z,89.66
2018-11-06T14:05:16.546Z,89.12
2018-11-06T14:10:18.690Z,89.04
2018-11-06T14:15:20.819Z,90.29
2018-11-06T14:20:22.942Z,90.94
2018-11-06T14:25:25.082Z,91.69
2018-11-06T14:30:27.220Z,92.05
2018-11-06T14:35:29.343Z,92.16
2018-11-06T14:40:31.463Z,92.14
2018-11-06T14:45:33.609Z,92.44
2018-11-06T14:50:35.737Z,92.50
2018-11-06T14:55:38.014Z,92.94
2018-11-06T15:00:40.265Z,94.53
2018-11-06T15:05:42.472Z,94.05
2018-11-06T15:10:44.553Z,93.36
2018-11-06T15:15:46.698Z,93.37
2018-11-06T15:20:48.900Z,94.17
2018-11-06T15:25:51.003Z,94.79
2018-11-06T15:30:53.127Z,94.31
2018-11-06T15:35:55.248Z,94.44
2018-11-06T15:40:57.423Z,94.32
2018-11-06T15:45:59.566Z,94.06
2018-11-06T15:51:01.744Z,93.68
2018-11-06T15:56:04.008Z,93.33
2018-11-06T16:01:06.208Z,94.41
2018-11-06T16:06:08.345Z,94.68
2018-11-06T16:11:10.531Z,95.38
2018-11-06T16:16:12.687Z,95.24
2018-11-06T16:21:14.871Z,94.14
2018-11-06T16:26:17.056Z,94.72
2018-11-06T16:31:19.237Z,94.94
2018-11-06T16:36:21.464Z,94.51
2018-11-06T16:41:23.644Z,93.51
2018-11-06T16:46:25.773Z,93.30
2018-11-06T16:51:27.932Z,93.51
2018-11-06T16:56:30.126Z,93.75
2018-11-06T17:01:32.298Z,93.86
2018-11-06T17:06:34.513Z,93.22
2018-11-06T17:11:36.881Z,94.61
2018-11-06T17:16:39.030Z,94.66
2018-11-06T17:21:41.364Z,94.67
2018-11-06T17:26:43.507Z,94.60
2018-11-06T17:31:45.681Z,94.70
2018-11-06T17:36:47.839Z,94.01
2018-11-06T17:41:50.036Z,94.21
2018-11-06T17:46:52.207Z,94.63
2018-11-06T17:51:54.544Z,94.96
2018-11-06T17:56:56.738Z,93.94
2018-11-06T18:01:58.992Z,93.59
2018-11-06T18:07:01.168Z,93.40
2018-11-06T18:12:03.368Z,92.74
2018-11-06T18:17:05.672Z,92.59
2018-11-06T18:22:07.888Z,92.33
2018-11-06T18:27:11.066Z,92.44
2018-11-06T18:32:14.737Z,92.31
2018-11-06T18:37:17.082Z,92.48
2018-11-06T18:42:19.289Z,92.37
2018-11-06T18:47:21.465Z,92.20
2018-11-06T18:52:23.661Z,92.26
2018-11-06T18:57:26.153Z,91.81
2018-11-06T19:02:28.612Z,94.03
2018-11-06T19:07:30.838Z,92.11
2018-11-06T19:12:33.491Z,91.44
2018-11-06T19:17:35.745Z,91.90
2018-11-06T19:22:38.566Z,91.85
2018-11-06T19:27:40.837Z,92.06
2018-11-06T19:32:43.398Z,92.05
2018-11-06T19:37:46.180Z,91.55
2018-11-06T19:42:49.155Z,92.27
2018-11-06T19:47:52.218Z,92.12
2018-11-06T19:52:55.869Z,92.51
2018-11-06T19:57:59.044Z,92.50
2018-11-06T20:03:03.195Z,92.78
2018-11-06T20:08:06.925Z,92.56
2018-11-06T20:13:09.506Z,92.27
2018-11-06T20:18:12.651Z,91.73
2018-11-06T20:23:15.229Z,91.66
2018-11-06T20:28:19.887Z,92.14
2018-11-06T20:33:23.391Z,92.20
2018-11-06T20:38:26.843Z,92.01
2018-11-06T20:43:29.699Z,92.17
2018-11-06T20:48:32.381Z,92.03
2018-11-06T20:53:34.986Z,92.11
2018-11-06T20:58:37.627Z,92.47
2018-11-06T21:03:40.856Z,92.13
2018-11-06T21:08:44.674Z,92.06
2018-11-06T21:13:47.601Z,92.36
2018-11-06T21:18:50.173Z,92.32
2018-11-06T21:23:55.259Z,92.29
2018-11-06T21:28:58.182Z,92.35
2018-11-06T21:34:00.923Z,92.34
2018-11-06T21:39:05.239Z,92.78
2018-11-06T21:44:07.554Z,92.32
2018-11-06T21:49:09.812Z,93.34
2018-11-06T21:54:11.964Z,93.74
2018-11-06T21:59:14.153Z,93.32
2018-11-06T22:04:16.299Z,92.69
2018-11-06T22:09:18.478Z,92.40
2018-11-06T22:14:20.616Z,93.30
2018-11-06T22:19:23.369Z,92.56
2018-11-06T22:24:25.542Z,92.06
2018-11-06T22:29:27.664Z,92.41
2018-11-06T22:34:29.828Z,92.64
2018-11-06T22:39:31.975Z,92.35
2018-11-06T22:44:34.091Z,92.71
2018-11-06T22:49:36.222Z,92.34
2018-11-06T22:54:38.355Z,93.03
2018-11-06T22:59:40.486Z,93.10
2018-11-06T23:04:42.712Z,93.80
2018-11-06T23:09:44.891Z,94.03
2018-11-06T23:14:47.074Z,93.66
2018-11-06T23:19:49.235Z,92.87
2018-11-06T23:24:51.424Z,92.82
2018-11-06T23:29:53.511Z,92.87
2018-11-06T23:34:55.640Z,92.81
2018-11-06T23:39:57.768Z,93.21
2018-11-06T23:45:00.064Z,92.85
2018-11-06T23:50:02.570Z,94.11
2018-11-06T23:55:05.038Z,94.00
